createdAt,value
2019-03-12T00:01:49.543Z,101537.83
2019-03-12T00:04:15.351Z,101538.66
2019-03-12T00:06:41.117Z,101530.08
2019-03-12T00:09:06.907Z,101529.70
2019-03-12T00:11:32.716Z,101535.17
2019-03-12T00:13:58.494Z,101534.55
2019-03-12T00:16:24.299Z,101538.05
2019-03-12T00:18:50.080Z,101529.80
2019-03-12T00:21:15.874Z,101529.95
2019-03-12T00:23:41.663Z,101523.38
2019-03-12T00:26:07.458Z,101528.61
2019-03-12T00:28:33.243Z,101530.36
2019-03-12T00:30:59.045Z,101540.69
2019-03-12T00:33:24.823Z,101540.57
2019-03-12T00:35:50.746Z,101554.92
2019-03-12T00:38:16.523Z,101548.91
2019-03-12T00:40:42.335Z,101555.08
2019-03-12T00:43:08.121Z,101560.27
2019-03-12T00:45:33.927Z,101564.09
2019-03-12T00:47:59.708Z,101563.38
2019-03-12T00:50:25.514Z,101558.48
2019-03-12T00:52:51.310Z,101557.45
2019-03-12T00:55:17.090Z,101561.80
2019-03-12T00:57:42.879Z,101572.67
2019-03-12T01:00:14.475Z,101567.66
2019-03-12T01:02:40.269Z,101566.58
2019-03-12T01:05:06.458Z,101566.37
2019-03-12T01:07:32.247Z,101566.28
2019-03-12T01:09:58.063Z,101565.66
2019-03-12T01:12:23.855Z,101559.77
2019-03-12T01:14:49.641Z,101565.20
2019-03-12T01:17:15.463Z,101563.17
2019-03-12T01:19:41.248Z,101569.44
2019-03-12T01:22:07.042Z,101556.75
2019-03-12T01:24:32.842Z,101554.47
2019-03-12T01:26:58.634Z,101543.76
2019-03-12T01:29:24.415Z,101545.96
2019-03-12T01:31:50.209Z,101544.58
2019-03-12T01:34:15.994Z,101539.64
2019-03-12T01:36:41.797Z,101536.48
2019-03-12T01:39:07.682Z,101535.94
2019-03-12T01:41:33.477Z,101541.87
2019-03-12T01:43:59.263Z,101543.14
2019-03-12T01:46:25.075Z,101544.77
2019-03-12T01:48:50.858Z,101548.91
2019-03-12T01:51:16.640Z,101548.55
2019-03-12T01:53:42.438Z,101544.41
2019-03-12T01:56:08.338Z,101549.25
2019-03-12T01:58:34.152Z,101548.05
2019-03-12T02:00:59.931Z,101546.94
2019-03-12T02:03:25.758Z,101552.99
2019-03-12T02:05:51.540Z,101547.15
2019-03-12T02:08:17.329Z,101538.94
2019-03-12T02:10:43.114Z,101533.88
2019-03-12T02:13:08.908Z,101534.37
2019-03-12T02:15:34.689Z,101531.22
2019-03-12T02:18:00.490Z,101529.70
2019-03-12T02:20:26.264Z,101533.72
2019-03-12T02:22:52.164Z,101521.23
2019-03-12T02:25:18.234Z,101519.96
2019-03-12T02:27:44.057Z,101517.20
2019-03-12T02:30:20.090Z,101517.22
2019-03-12T02:32:45.901Z,101518.94
2019-03-12T02:35:11.691Z,101515.84
2019-03-12T02:37:37.474Z,101514.28
2019-03-12T02:40:05.804Z,101513.56
2019-03-12T02:42:31.604Z,101506.70
2019-03-12T02:44:57.411Z,101505.23
2019-03-12T02:47:23.200Z,101503.55
2019-03-12T02:49:48.996Z,101498.97
2019-03-12T02:52:14.792Z,101499.94
2019-03-12T02:54:40.598Z,101490.03
2019-03-12T02:57:06.394Z,101487.98
2019-03-12T02:59:32.294Z,101482.92
2019-03-12T03:01:58.098Z,101481.84
2019-03-12T03:04:23.900Z,101483.17
2019-03-12T03:06:51.602Z,101482.30
2019-03-12T03:09:17.410Z,101489.33
2019-03-12T03:11:43.193Z,101492.25
2019-03-12T03:14:29.624Z,101492.26
2019-03-12T03:16:55.414Z,101495.02
2019-03-12T03:19:21.331Z,101490.80
2019-03-12T03:21:47.114Z,101488.50
2019-03-12T03:24:12.922Z,101499.65
2019-03-12T03:26:38.716Z,101498.69
2019-03-12T03:29:04.508Z,101490.70
2019-03-12T03:31:30.319Z,101495.89
2019-03-12T03:33:56.110Z,101492.87
2019-03-12T03:36:21.897Z,101496.62
2019-03-12T03:38:47.688Z,101504.11
2019-03-12T03:41:13.505Z,101507.50
2019-03-12T03:43:39.291Z,101497.09
2019-03-12T03:46:05.090Z,101490.94
2019-03-12T03:48:30.874Z,101494.80
2019-03-12T03:50:56.671Z,101493.47
2019-03-12T03:53:22.448Z,101509.70
2019-03-12T03:55:48.247Z,101489.98
2019-03-12T03:58:14.030Z,101490.94
2019-03-12T04:00:39.835Z,101495.16
2019-03-12T04:03:05.687Z,101490.34
2019-03-12T04:05:31.532Z,101490.47
2019-03-12T04:07:57.330Z,101488.17
2019-03-12T04:10:23.131Z,101478.22
2019-03-12T04:12:48.945Z,101473.99
2019-03-12T04:15:17.879Z,101476.65
2019-03-12T04:17:43.665Z,101475.44
2019-03-12T04:20:12.168Z,101470.48
2019-03-12T04:22:37.986Z,101462.96
2019-03-12T04:25:04.682Z,101461.39
2019-03-12T04:27:30.490Z,101459.59
2019-03-12T04:29:56.307Z,101458.95
2019-03-12T04:32:22.108Z,101454.97
2019-03-12T04:34:47.890Z,101459.45
2019-03-12T04:37:13.743Z,101457.88
2019-03-12T04:39:39.487Z,101456.55
2019-03-12T04:42:05.290Z,101455.80
2019-03-12T04:44:31.097Z,101450.34
2019-03-12T04:46:56.895Z,101445.50
2019-03-12T04:49:22.688Z,101444.39
2019-03-12T04:51:48.477Z,101446.67
2019-03-12T04:54:14.259Z,101442.57
2019-03-12T04:56:40.077Z,101440.73
2019-03-12T04:59:05.860Z,101436.14
2019-03-12T05:01:31.672Z,101434.66
2019-03-12T05:03:57.459Z,101427.53
2019-03-12T05:06:23.244Z,101422.81
2019-03-12T05:08:49.044Z,101423.77
2019-03-12T05:11:14.850Z,101420.83
2019-03-12T05:13:40.641Z,101419.00
2019-03-12T05:16:06.446Z,101414.39
2019-03-12T05:18:32.262Z,101411.34
2019-03-12T05:20:58.040Z,101399.70
2019-03-12T05:23:23.836Z,101398.73
2019-03-12T05:25:49.637Z,101398.52
2019-03-12T05:28:15.434Z,101414.25
2019-03-12T05:30:41.220Z,101395.20
2019-03-12T05:33:07.017Z,101403.20
2019-03-12T05:35:32.803Z,101397.88
2019-03-12T05:37:58.609Z,101403.34
2019-03-12T05:40:24.392Z,101403.20
2019-03-12T05:42:50.197Z,101403.56
2019-03-12T05:45:16.681Z,101400.53
2019-03-12T05:47:42.594Z,101397.98
2019-03-12T05:50:12.818Z,101394.02
2019-03-12T05:52:38.606Z,101395.42
2019-03-12T05:55:06.001Z,101395.34
2019-03-12T05:57:31.789Z,101396.90
2019-03-12T05:59:57.587Z,101393.52
2019-03-12T06:02:23.375Z,101388.05
2019-03-12T06:04:49.169Z,101397.62
2019-03-12T06:07:14.978Z,101387.32
2019-03-12T06:09:40.780Z,101384.38
2019-03-12T06:12:06.560Z,101377.99
2019-03-12T06:14:32.357Z,101376.02
2019-03-12T06:16:58.164Z,101381.56
2019-03-12T06:19:23.959Z,101378.89
2019-03-12T06:21:49.742Z,101381.53
2019-03-12T06:24:15.573Z,101384.19
2019-03-12T06:26:42.436Z,101381.48
2019-03-12T06:29:08.268Z,101376.66
2019-03-12T06:31:42.020Z,101382.86
2019-03-12T06:34:09.737Z,101376.37
2019-03-12T06:36:37.436Z,101371.19
2019-03-12T06:39:07.544Z,101377.59
2019-03-12T06:41:35.269Z,101371.97
2019-03-12T06:44:11.703Z,101371.72
2019-03-12T06:46:57.577Z,101367.25
2019-03-12T06:49:27.822Z,101369.67
2019-03-12T06:52:07.355Z,101371.86
2019-03-12T06:54:35.050Z,101372.87
2019-03-12T06:57:02.761Z,101366.53
2019-03-12T06:59:36.235Z,101364.16
2019-03-12T07:02:03.936Z,101357.09
2019-03-12T07:04:37.220Z,101352.59
2019-03-12T07:07:21.694Z,101339.93
2019-03-12T07:10:07.545Z,101330.75
2019-03-12T07:12:41.069Z,101329.16
2019-03-12T07:15:21.879Z,101328.91
2019-03-12T07:17:52.186Z,101322.60
2019-03-12T07:20:25.610Z,101323.12
2019-03-12T07:22:53.300Z,101321.31
2019-03-12T07:25:37.433Z,101314.44
2019-03-12T07:28:21.718Z,101320.94
2019-03-12T07:30:52.239Z,101312.13
2019-03-12T07:33:19.938Z,101311.24
2019-03-12T07:36:04.305Z,101306.17
2019-03-12T07:38:34.906Z,101303.39
2019-03-12T07:41:05.132Z,101305.64
2019-03-12T07:43:35.351Z,101298.50
2019-03-12T07:46:14.880Z,101287.67
2019-03-12T07:48:48.632Z,101292.23
2019-03-12T07:51:32.857Z,101287.34
2019-03-12T07:54:03.319Z,101287.90
2019-03-12T07:56:33.684Z,101274.84
2019-03-12T07:59:03.897Z,101276.68
2019-03-12T08:01:31.629Z,101272.33
2019-03-12T08:04:17.308Z,101263.04
2019-03-12T08:06:56.899Z,101262.77
2019-03-12T08:09:33.304Z,101254.55
2019-03-12T08:12:01.030Z,101241.17
2019-03-12T08:14:45.502Z,101236.97
2019-03-12T08:17:13.214Z,101228.44
2019-03-12T08:19:40.913Z,101222.38
2019-03-12T08:22:11.406Z,101211.96
2019-03-12T08:24:44.918Z,101209.64
2019-03-12T08:27:18.438Z,101207.83
2019-03-12T08:29:46.127Z,101203.88
2019-03-12T08:32:13.847Z,101198.41
2019-03-12T08:34:41.535Z,101186.41
2019-03-12T08:37:24.260Z,101185.25
2019-03-12T08:40:04.029Z,101179.52
2019-03-12T08:42:54.609Z,101169.98
2019-03-12T08:45:26.759Z,101173.30
2019-03-12T08:48:03.098Z,101159.91
2019-03-12T08:50:33.375Z,101157.58
2019-03-12T08:53:04.038Z,101143.20
2019-03-12T08:55:34.247Z,101146.51
2019-03-12T08:58:04.765Z,101136.84
2019-03-12T09:00:32.460Z,101131.59
2019-03-12T09:03:18.397Z,101141.61
2019-03-12T09:06:03.988Z,101138.63
2019-03-12T09:08:34.227Z,101122.51
2019-03-12T09:11:10.608Z,101127.01
2019-03-12T09:13:54.844Z,101116.47
2019-03-12T09:16:28.360Z,101107.70
2019-03-12T09:19:04.922Z,101101.56
2019-03-12T09:21:49.327Z,101090.72
2019-03-12T09:24:33.849Z,101084.04
2019-03-12T09:27:07.380Z,101076.69
2019-03-12T09:29:35.082Z,101063.38
2019-03-12T09:32:02.775Z,101054.86
2019-03-12T09:34:30.479Z,101059.77
2019-03-12T09:37:10.156Z,101062.45
2019-03-12T09:39:40.810Z,101056.13
2019-03-12T09:42:08.518Z,101050.70
2019-03-12T09:44:36.217Z,101040.58
2019-03-12T09:47:12.846Z,101037.52
2019-03-12T09:49:58.470Z,101016.74
2019-03-12T09:52:26.171Z,101016.05
2019-03-12T09:54:56.406Z,101009.87
2019-03-12T09:57:24.098Z,101001.80
2019-03-12T09:59:51.832Z,100993.26
2019-03-12T10:02:19.527Z,100989.89
2019-03-12T10:04:55.933Z,100983.06
2019-03-12T10:07:23.619Z,100987.22
2019-03-12T10:10:03.473Z,100990.23
2019-03-12T10:12:33.917Z,100982.20
2019-03-12T10:15:19.824Z,100978.94
2019-03-12T10:17:50.298Z,100972.42
2019-03-12T10:20:34.677Z,100962.98
2019-03-12T10:23:14.464Z,100962.33
2019-03-12T10:25:48.002Z,100951.65
2019-03-12T10:28:21.629Z,100958.38
2019-03-12T10:31:01.356Z,100951.14
2019-03-12T10:33:41.146Z,100934.47
2019-03-12T10:36:24.135Z,100928.86
2019-03-12T10:39:41.999Z,100923.84
2019-03-12T10:42:21.797Z,100917.30
2019-03-12T10:44:52.301Z,100906.26
2019-03-12T10:47:22.608Z,100892.70
2019-03-12T10:49:48.755Z,100891.24
2019-03-12T10:52:14.548Z,100894.77
2019-03-12T10:54:40.366Z,100874.97
2019-03-12T10:57:06.158Z,100874.97
2019-03-12T10:59:31.957Z,100875.66
2019-03-12T11:01:57.742Z,100864.92
2019-03-12T11:04:23.549Z,100860.73
2019-03-12T11:06:49.392Z,100862.91
2019-03-12T11:09:15.189Z,100850.48
2019-03-12T11:11:40.978Z,100843.60
2019-03-12T11:14:06.806Z,100828.33
2019-03-12T11:16:32.600Z,100834.84
2019-03-12T11:18:58.390Z,100821.98
2019-03-12T11:21:24.199Z,100827.33
2019-03-12T11:23:50.013Z,100830.34
2019-03-12T11:26:15.795Z,100817.25
2019-03-12T11:28:41.701Z,100818.39
2019-03-12T11:31:07.582Z,100818.56
2019-03-12T11:33:33.372Z,100807.34
2019-03-12T11:35:59.195Z,100813.33
2019-03-12T11:38:24.973Z,100796.61
2019-03-12T11:40:50.803Z,100791.44
2019-03-12T11:43:16.605Z,100791.44
2019-03-12T11:45:42.410Z,100790.43
2019-03-12T11:48:08.189Z,100773.71
2019-03-12T11:50:33.986Z,100776.05
2019-03-12T11:53:00.774Z,100767.48
2019-03-12T11:55:26.870Z,100752.13
2019-03-12T11:57:52.658Z,100747.80
2019-03-12T12:00:40.546Z,100737.59
2019-03-12T12:03:06.337Z,100721.53
2019-03-12T12:05:32.175Z,100706.14
2019-03-12T12:07:58.003Z,100710.83
2019-03-12T12:10:23.946Z,100724.06
2019-03-12T12:12:49.890Z,100706.33
2019-03-12T12:15:15.709Z,100693.59
2019-03-12T12:17:41.500Z,100700.45
2019-03-12T12:20:09.425Z,100694.44
2019-03-12T12:22:35.209Z,100648.23
2019-03-12T12:25:01.021Z,100647.84
2019-03-12T12:27:26.811Z,100647.84
2019-03-12T12:29:52.641Z,100641.66
2019-03-12T12:32:18.413Z,100619.03
2019-03-12T12:34:44.208Z,100615.98
2019-03-12T12:37:10.018Z,100595.92
2019-03-12T12:39:35.799Z,100590.41
2019-03-12T12:42:01.596Z,100579.02
2019-03-12T12:44:27.382Z,100570.45
2019-03-12T12:46:53.189Z,100554.05
2019-03-12T12:49:18.976Z,100544.33
2019-03-12T12:51:44.780Z,100544.00
2019-03-12T12:54:10.648Z,100529.58
2019-03-12T12:56:36.486Z,100533.75
2019-03-12T12:59:02.276Z,100536.76
2019-03-12T13:01:28.090Z,100524.97
2019-03-12T13:03:53.873Z,100523.72
2019-03-12T13:06:19.697Z,100501.98
2019-03-12T13:08:45.501Z,100508.83
2019-03-12T13:11:11.300Z,100505.67
2019-03-12T13:13:37.106Z,100485.56
2019-03-12T13:16:02.905Z,100475.98
2019-03-12T13:18:28.701Z,100471.69
2019-03-12T13:20:54.502Z,100464.94
2019-03-12T13:23:21.118Z,100464.94
2019-03-12T13:25:46.917Z,100467.61
2019-03-12T13:28:12.724Z,100477.52
2019-03-12T13:30:38.507Z,100473.25
2019-03-12T13:33:04.315Z,100467.97
2019-03-12T13:35:30.100Z,100456.28
2019-03-12T13:37:55.893Z,100444.95
2019-03-12T13:40:23.115Z,100425.02
2019-03-12T13:42:49.141Z,100420.33
2019-03-12T13:45:19.574Z,100394.05
2019-03-12T13:47:45.647Z,100406.78
2019-03-12T13:50:12.064Z,100397.34
2019-03-12T13:52:37.886Z,100402.02
2019-03-12T13:55:06.975Z,100378.41
2019-03-12T13:57:32.779Z,100380.58
2019-03-12T13:59:58.580Z,100373.84
2019-03-12T14:02:24.353Z,100375.51
2019-03-12T14:04:50.180Z,100355.72
2019-03-12T14:07:16.136Z,100345.66
2019-03-12T14:09:41.927Z,100355.39
2019-03-12T14:12:07.812Z,100337.97
2019-03-12T14:14:33.614Z,100334.94
2019-03-12T14:16:59.396Z,100326.83
2019-03-12T14:19:25.194Z,100305.72
2019-03-12T14:21:51.179Z,100295.65
2019-03-12T14:24:16.987Z,100285.03
2019-03-12T14:26:42.773Z,100270.78
2019-03-12T14:29:08.571Z,100263.39
2019-03-12T14:31:34.375Z,100262.94
2019-03-12T14:34:00.170Z,100244.30
2019-03-12T14:36:25.954Z,100260.52
2019-03-12T14:38:51.768Z,100225.64
2019-03-12T14:41:17.571Z,100225.64
2019-03-12T14:43:43.388Z,100255.66
2019-03-12T14:46:09.273Z,100239.17
2019-03-12T14:48:44.068Z,100222.80
2019-03-12T14:51:13.685Z,100213.77
2019-03-12T14:53:40.984Z,100226.30
2019-03-12T14:56:06.785Z,100215.24
2019-03-12T14:58:32.578Z,100204.33
2019-03-12T15:00:58.384Z,100190.68
2019-03-12T15:03:24.160Z,100189.41
2019-03-12T15:05:50.107Z,100185.19
2019-03-12T15:08:15.898Z,100171.45
2019-03-12T15:10:41.693Z,100168.91
2019-03-12T15:13:07.483Z,100162.73
2019-03-12T15:15:33.283Z,100157.72
2019-03-12T15:17:59.085Z,100141.96
2019-03-12T15:20:24.882Z,100138.14
2019-03-12T15:22:50.669Z,100125.95
2019-03-12T15:25:16.466Z,100116.01
2019-03-12T15:27:42.263Z,100113.28
2019-03-12T15:30:14.791Z,100114.91
2019-03-12T15:32:40.576Z,100095.13
2019-03-12T15:35:06.481Z,100089.31
2019-03-12T15:37:32.263Z,100076.47
2019-03-12T15:39:58.071Z,100076.83
2019-03-12T15:42:23.848Z,100063.42
2019-03-12T15:44:49.732Z,100065.20
2019-03-12T15:47:15.522Z,100051.84
2019-03-12T15:49:42.967Z,100044.52
2019-03-12T15:52:09.024Z,100056.11
2019-03-12T15:54:34.869Z,100038.28
2019-03-12T15:57:00.670Z,100038.28
2019-03-12T15:59:26.651Z,100042.51
2019-03-12T16:01:52.443Z,100025.00
2019-03-12T16:04:18.226Z,100027.86
2019-03-12T16:06:44.070Z,100016.28
2019-03-12T16:09:10.070Z,100001.66
2019-03-12T16:11:35.971Z,99998.70
2019-03-12T16:14:01.752Z,99985.17
2019-03-12T16:16:27.544Z,99980.84
2019-03-12T16:18:53.327Z,99969.99
2019-03-12T16:21:19.132Z,99964.80
2019-03-12T16:23:44.917Z,99957.85
2019-03-12T16:26:10.721Z,99945.99
2019-03-12T16:28:36.503Z,99934.00
2019-03-12T16:31:02.310Z,99931.44
2019-03-12T16:33:28.089Z,99924.62
2019-03-12T16:35:53.888Z,99910.57
2019-03-12T16:38:19.681Z,99903.50
2019-03-12T16:40:45.463Z,99896.80
2019-03-12T16:43:11.276Z,99895.83
2019-03-12T16:45:37.065Z,99882.17
2019-03-12T16:48:02.860Z,99876.64
2019-03-12T16:50:28.646Z,99869.14
2019-03-12T16:52:54.463Z,99867.52
2019-03-12T16:55:20.266Z,99849.89
2019-03-12T16:57:46.056Z,99835.84
2019-03-12T17:00:13.640Z,99842.69
2019-03-12T17:02:39.464Z,99832.81
2019-03-12T17:05:07.793Z,99826.11
2019-03-12T17:07:33.589Z,99829.95
2019-03-12T17:09:59.379Z,99820.86
2019-03-12T17:12:25.173Z,99811.66
2019-03-12T17:14:50.958Z,99813.52
2019-03-12T17:17:16.768Z,99795.07
2019-03-12T17:19:42.546Z,99795.07
2019-03-12T17:22:08.350Z,99794.28
2019-03-12T17:24:34.136Z,99791.15
2019-03-12T17:26:59.956Z,99771.80
2019-03-12T17:29:25.782Z,99771.80
2019-03-12T17:31:51.572Z,99779.23
2019-03-12T17:34:17.389Z,99763.73
2019-03-12T17:36:43.173Z,99766.21
2019-03-12T17:39:09.082Z,99768.58
2019-03-12T17:41:34.873Z,99761.39
2019-03-12T17:44:00.678Z,99756.03
2019-03-12T17:46:26.465Z,99754.79
2019-03-12T17:48:52.257Z,99750.45
2019-03-12T17:51:18.041Z,99740.22
2019-03-12T17:53:43.846Z,99745.50
2019-03-12T17:56:09.632Z,99732.63
2019-03-12T17:58:35.429Z,99733.22
2019-03-12T18:01:01.222Z,99718.16
2019-03-12T18:03:27.009Z,99714.16
2019-03-12T18:05:52.813Z,99692.03
2019-03-12T18:08:18.606Z,99692.73
2019-03-12T18:10:44.393Z,99689.88
2019-03-12T18:13:10.199Z,99682.75
2019-03-12T18:15:35.983Z,99675.09
2019-03-12T18:18:01.783Z,99673.87
2019-03-12T18:20:27.695Z,99660.43
2019-03-12T18:22:53.529Z,99648.58
2019-03-12T18:25:35.199Z,99645.27
2019-03-12T18:28:00.997Z,99635.30
2019-03-12T18:30:26.878Z,99625.27
2019-03-12T18:32:52.661Z,99625.17
2019-03-12T18:35:18.451Z,99615.62
2019-03-12T18:37:44.233Z,99605.80
2019-03-12T18:40:12.733Z,99594.90
2019-03-12T18:42:38.616Z,99584.30
2019-03-12T18:45:11.309Z,99568.75
2019-03-12T18:47:37.136Z,99572.24
2019-03-12T18:50:09.309Z,99559.02
2019-03-12T18:52:35.097Z,99556.34
2019-03-12T18:55:00.891Z,99548.63
2019-03-12T18:57:26.678Z,99551.05
2019-03-12T18:59:52.590Z,99549.39
2019-03-12T19:02:18.381Z,99543.18
2019-03-12T19:04:44.178Z,99536.17
2019-03-12T19:07:10.002Z,99539.23
2019-03-12T19:09:35.798Z,99530.88
2019-03-12T19:12:01.581Z,99529.22
2019-03-12T19:14:27.385Z,99512.09
2019-03-12T19:16:53.174Z,99501.43
2019-03-12T19:19:18.977Z,99503.57
2019-03-12T19:21:44.755Z,99498.22
2019-03-12T19:24:10.563Z,99500.62
2019-03-12T19:26:36.339Z,99487.23
2019-03-12T19:29:02.150Z,99487.41
2019-03-12T19:31:32.622Z,99490.65
2019-03-12T19:33:59.712Z,99478.71
2019-03-12T19:36:25.511Z,99473.03
2019-03-12T19:38:51.389Z,99471.59
2019-03-12T19:41:17.209Z,99470.78
2019-03-12T19:43:42.999Z,99466.97
2019-03-12T19:46:08.798Z,99467.79
2019-03-12T19:48:34.583Z,99461.20
2019-03-12T19:51:00.382Z,99457.18
2019-03-12T19:53:26.187Z,99440.55
2019-03-12T19:55:55.313Z,99435.83
2019-03-12T19:58:21.170Z,99429.06
2019-03-12T20:00:47.059Z,99429.77
2019-03-12T20:03:15.271Z,99423.39
2019-03-12T20:05:40.574Z,99425.52
2019-03-12T20:08:06.347Z,99413.99
2019-03-12T20:10:48.352Z,99429.70
2019-03-12T20:13:51.717Z,99396.77
2019-03-12T20:16:33.207Z,99388.66
2019-03-12T20:19:35.982Z,99374.33
2019-03-12T20:22:34.571Z,99363.09
2019-03-12T20:25:37.968Z,99346.88
2019-03-12T20:28:13.421Z,99335.88
2019-03-12T20:31:06.897Z,99319.41
2019-03-12T20:34:03.556Z,99307.67
2019-03-12T20:37:07.023Z,99296.88
2019-03-12T20:40:06.818Z,99305.82
2019-03-12T20:42:36.432Z,99289.16
2019-03-12T20:45:26.810Z,99284.09
2019-03-12T20:48:30.000Z,99276.19
2019-03-12T20:51:08.474Z,99275.33
2019-03-12T20:54:04.189Z,99280.70
2019-03-12T20:57:10.698Z,99282.66
2019-03-12T21:00:02.710Z,99292.35
2019-03-12T21:02:47.642Z,99295.44
2019-03-12T21:05:32.529Z,99275.89
2019-03-12T21:08:16.993Z,99285.05
2019-03-12T21:10:52.413Z,99281.96
2019-03-12T21:13:47.456Z,99279.99
2019-03-12T21:16:33.502Z,99280.69
2019-03-12T21:19:29.347Z,99266.22
2019-03-12T21:22:23.121Z,99256.97
2019-03-12T21:25:04.391Z,99250.67
2019-03-12T21:27:39.853Z,99257.13
2019-03-12T21:30:05.481Z,99244.25
2019-03-12T21:32:31.404Z,99236.11
2019-03-12T21:34:57.198Z,99233.20
2019-03-12T21:37:23.199Z,99218.98
2019-03-12T21:39:55.815Z,99207.55
2019-03-12T21:42:16.890Z,99201.70
2019-03-12T21:44:42.679Z,99190.35
2019-03-12T21:47:08.476Z,99178.52
2019-03-12T21:49:34.265Z,99169.16
2019-03-12T21:52:00.081Z,99162.27
2019-03-12T21:54:25.859Z,99156.20
2019-03-12T21:56:51.647Z,99142.20
2019-03-12T21:59:17.461Z,99129.14
2019-03-12T22:01:43.248Z,99126.46
2019-03-12T22:04:09.044Z,99119.46
2019-03-12T22:06:35.049Z,99117.09
2019-03-12T22:09:03.651Z,99107.65
2019-03-12T22:11:29.461Z,99102.89
2019-03-12T22:13:55.282Z,99096.12
2019-03-12T22:16:21.089Z,99090.15
2019-03-12T22:18:46.907Z,99088.94
2019-03-12T22:21:14.590Z,99081.94
2019-03-12T22:23:42.319Z,99084.92
2019-03-12T22:26:08.105Z,99077.80
2019-03-12T22:28:36.003Z,99075.03
2019-03-12T22:31:01.809Z,99079.86
2019-03-12T22:33:27.606Z,99080.48
2019-03-12T22:35:53.390Z,99068.12
2019-03-12T22:38:19.210Z,99073.30
2019-03-12T22:40:45.016Z,99076.38
2019-03-12T22:43:10.811Z,99065.57
2019-03-12T22:45:36.600Z,99059.69
2019-03-12T22:48:02.399Z,99059.59
2019-03-12T22:50:28.198Z,99054.44
2019-03-12T22:52:54.013Z,99049.08
2019-03-12T22:55:19.830Z,99046.94
2019-03-12T22:57:45.621Z,99052.50
2019-03-12T23:00:19.197Z,99057.73
2019-03-12T23:02:44.997Z,99048.48
2019-03-12T23:05:11.098Z,99040.95
2019-03-12T23:07:36.918Z,99043.64
2019-03-12T23:10:05.523Z,99039.93
2019-03-12T23:12:31.304Z,99028.20
2019-03-12T23:14:57.101Z,99033.96
2019-03-12T23:17:22.880Z,99025.13
2019-03-12T23:19:48.688Z,99024.81
2019-03-12T23:22:14.461Z,99017.72
2019-03-12T23:24:40.281Z,99016.78
2019-03-12T23:27:06.069Z,99016.08
2019-03-12T23:29:31.878Z,99009.08
2019-03-12T23:31:57.663Z,99014.52
2019-03-12T23:34:23.456Z,99006.80
2019-03-12T23:36:49.244Z,99003.09
2019-03-12T23:39:15.145Z,98993.52
2019-03-12T23:41:40.930Z,98988.08
2019-03-12T23:44:06.921Z,98992.40
2019-03-12T23:46:32.723Z,98995.08
2019-03-12T23:48:58.508Z,98997.13
2019-03-12T23:51:24.340Z,98998.56
2019-03-12T23:53:50.133Z,98997.03
2019-03-12T23:56:15.946Z,99003.32
2019-03-12T23:58:41.741Z,99005.38
